Time;durP1;ratioP1;P1;durP2;ratioP2;P2;SDS_P1;SDS_P2;PMS_P1;PMS_P2;Temp;Humidity;BMP_temperature;BMP_pressure;BME280_temperature;BME280_humidity;BME280_pressure;Samples;Min_cycle;Max_cycle;Signal;HPM_P1;HPM_P2
2021/06/05 00:00:29;;;;;;;9.30;8.60;;;;;;;20.88;71.51;101129.38;5103786;28;20206;-76
2021/06/05 00:02:55;;;;;;;9.23;8.43;;;;;;;20.78;71.04;101134.03;5117342;28;20222;-77
2021/06/05 00:05:23;;;;;;;9.00;8.20;;;;;;;20.66;71.21;101127.94;5117849;28;20572;-77
2021/06/05 00:07:49;;;;;;;8.87;8.20;;;;;;;20.59;71.65;101128.72;5116258;28;20238;-78
2021/06/05 00:10:22;;;;;;;8.83;8.03;;;;;;;20.56;72.05;101129.84;5096419;28;20211;-77
2021/06/05 00:12:48;;;;;;;8.50;7.70;;;;;;;20.55;72.23;101128.16;5110688;28;20231;-77
2021/06/05 00:15:19;;;;;;;8.60;7.90;;;;;;;20.54;72.29;101122.88;5096410;28;20201;-77
2021/06/05 00:17:45;;;;;;;8.67;7.83;;;;;;;20.52;72.28;101122.19;5096022;28;20188;-77
2021/06/05 00:20:13;;;;;;;9.30;7.77;;;;;;;20.45;72.05;101111.09;5100978;28;20223;-77
2021/06/05 00:22:39;;;;;;;8.03;7.30;;;;;;;20.38;71.97;101110.84;5116153;28;20228;-77
2021/06/05 00:25:12;;;;;;;8.13;7.00;;;;;;;20.31;72.16;101111.56;5116300;28;20650;-76
2021/06/05 00:27:40;;;;;;;8.03;7.27;;;;;;;20.24;72.31;101105.06;5105629;28;20217;-77
2021/06/05 00:30:09;;;;;;;7.67;7.10;;;;;;;20.19;72.62;101108.19;5095105;28;20223;-77
2021/06/05 00:32:35;;;;;;;7.80;7.13;;;;;;;20.17;72.88;101103.94;5095240;28;20282;-77
2021/06/05 00:35:01;;;;;;;7.03;6.37;;;;;;;20.17;72.73;101104.78;5095969;28;20211;-77
2021/06/05 00:37:27;;;;;;;7.77;7.00;;;;;;;20.20;72.78;101109.06;5101599;28;20194;-77
2021/06/05 00:39:53;;;;;;;7.63;6.93;;;;;;;20.21;72.81;101108.06;5095041;28;20222;-76
2021/06/05 00:42:19;;;;;;;7.63;6.93;;;;;;;20.21;72.64;101106.19;5109631;28;20279;-77
2021/06/05 00:44:46;;;;;;;7.23;6.63;;;;;;;20.20;72.67;101101.78;5095214;28;20212;-76
2021/06/05 00:47:12;;;;;;;6.73;6.23;;;;;;;20.19;72.86;101091.97;5095188;28;20214;-77
2021/06/05 00:49:38;;;;;;;7.70;7.00;;;;;;;20.19;72.79;101097.38;5095923;28;20238;-77
2021/06/05 00:52:05;;;;;;;7.27;6.60;;;;;;;20.21;72.96;101108.06;5109347;28;20731;-76
2021/06/05 00:54:33;;;;;;;7.10;6.50;;;;;;;20.23;72.97;101106.06;5097632;28;20207;-77
2021/06/05 00:57:03;;;;;;;7.10;6.60;;;;;;;20.25;72.78;101104.03;5099428;28;20201;-77
2021/06/05 00:59:29;;;;;;;7.43;6.70;;;;;;;20.22;72.36;101093.53;5103596;28;20230;-76
2021/06/05 01:01:57;;;;;;;9.67;6.40;;;;;;;20.21;72.42;101094.53;5114746;28;20711;-76
2021/06/05 01:04:23;;;;;;;7.80;7.17;;;;;;;20.19;72.40;101086.56;5097871;27;20607;-77
2021/06/05 01:06:52;;;;;;;8.13;7.43;;;;;;;20.21;72.59;101083.72;5109309;28;20209;-76
2021/06/05 01:09:25;;;;;;;9.17;7.90;;;;;;;20.23;72.63;101081.72;5100815;28;20202;-76
2021/06/05 01:11:57;;;;;;;11.30;10.20;;;;;;;20.25;72.63;101088.66;5096338;28;20200;-76
2021/06/05 01:14:33;;;;;;;9.63;8.87;;;;;;;20.24;72.46;101078.88;5094038;28;20199;-76
2021/06/05 01:17:06;;;;;;;10.07;9.17;;;;;;;20.20;72.27;101087.41;5094377;28;20207;-76
2021/06/05 01:19:44;;;;;;;9.70;8.70;;;;;;;20.10;72.19;101077.47;5094317;28;20224;-77
2021/06/05 01:22:38;;;;;;;9.00;8.10;;;;;;;20.03;72.16;101079.09;5102557;28;20632;-76
2021/06/05 01:25:23;;;;;;;8.73;7.93;;;;;;;19.98;72.41;101088.63;5094240;28;20268;-76
2021/06/05 01:27:56;;;;;;;8.60;7.77;;;;;;;19.96;72.35;101085.22;5094396;28;20204;-77
2021/06/05 01:30:27;;;;;;;9.87;8.97;;;;;;;19.95;72.57;101084.34;5094065;28;20765;-77
2021/06/05 01:32:57;;;;;;;9.10;8.27;;;;;;;19.96;72.65;101085.22;5094395;28;20227;-77
2021/06/05 01:35:25;;;;;;;9.23;8.43;;;;;;;19.95;73.01;101084.34;5093953;28;20216;-77
2021/06/05 01:37:54;;;;;;;9.07;8.37;;;;;;;19.97;73.05;101086.91;5093768;28;20272;-77
2021/06/05 01:40:22;;;;;;;9.73;8.73;;;;;;;19.98;73.05;101091.31;5093814;28;20207;-77
2021/06/05 01:42:50;;;;;;;9.70;8.83;;;;;;;19.98;73.07;101091.31;5093868;28;20268;-76
2021/06/05 01:45:21;;;;;;;10.37;9.37;;;;;;;19.97;73.37;101082.38;5094016;28;20211;-77
2021/06/05 01:47:47;;;;;;;10.53;9.63;;;;;;;19.98;73.59;101092.19;5092936;28;20205;-77
2021/06/05 01:50:15;;;;;;;10.40;9.60;;;;;;;19.99;73.36;101084.91;5093780;28;20202;-77
2021/06/05 01:52:42;;;;;;;11.10;10.20;;;;;;;19.99;73.59;101084.91;5094360;28;20684;-77
2021/06/05 01:55:12;;;;;;;10.60;8.27;;;;;;;19.98;73.31;101081.38;5100726;28;20198;-77
2021/06/05 01:57:42;;;;;;;8.80;8.00;;;;;;;19.90;72.96;101083.09;5102108;28;20206;-77
2021/06/05 02:00:12;;;;;;;9.60;8.60;;;;;;;19.79;72.76;101084.13;5100224;28;20637;-77
2021/06/05 02:02:39;;;;;;;8.73;7.93;;;;;;;19.68;72.93;101087.84;5104480;28;20229;-76
2021/06/05 02:05:06;;;;;;;9.20;8.30;;;;;;;19.61;72.90;101096.69;5098712;28;20715;-76
2021/06/05 02:07:33;;;;;;;9.70;8.77;;;;;;;19.54;73.47;101087.44;5100368;28;20202;-76
2021/06/05 02:09:59;;;;;;;10.80;8.90;;;;;;;19.50;73.51;101083.34;5108591;28;20199;-76
2021/06/05 02:12:30;;;;;;;10.83;9.73;;;;;;;19.47;73.60;101095.25;5096767;28;20768;-77
2021/06/05 02:15:01;;;;;;;10.40;9.40;;;;;;;19.41;73.79;101080.44;5098499;28;20197;-77
2021/06/05 02:17:29;;;;;;;9.53;8.33;;;;;;;19.36;73.91;101081.88;5110782;28;20295;-77
2021/06/05 02:20:00;;;;;;;10.10;9.20;;;;;;;19.30;73.95;101086.00;5102831;28;20224;-77
2021/06/05 02:22:30;;;;;;;10.03;9.13;;;;;;;19.26;74.18;101078.34;5099945;28;20226;-78
2021/06/05 02:24:59;;;;;;;11.40;10.23;;;;;;;19.20;74.60;101066.25;5109991;28;20206;-78
2021/06/05 02:27:28;;;;;;;12.17;10.77;;;;;;;19.20;74.96;101065.38;5096359;28;20632;-77
2021/06/05 02:29:56;;;;;;;14.47;10.27;;;;;;;19.20;75.16;101068.09;5107890;28;20211;-78
2021/06/05 02:32:26;;;;;;;11.30;10.23;;;;;;;19.19;75.12;101069.94;5103061;28;20595;-78
2021/06/05 02:34:53;;;;;;;11.73;10.40;;;;;;;19.20;75.07;101068.94;5100675;28;20202;-79
2021/06/05 02:37:24;;;;;;;11.53;10.43;;;;;;;19.17;74.96;101071.94;5095024;28;20217;-78
2021/06/05 02:39:54;;;;;;;11.80;10.60;;;;;;;19.16;75.22;101074.78;5108166;28;20210;-78
2021/06/05 02:42:21;;;;;;;12.30;11.10;;;;;;;19.15;75.17;101082.03;5106283;28;20220;-79
2021/06/05 02:44:50;;;;;;;11.17;10.00;;;;;;;19.13;75.00;101080.47;5094123;28;20206;-77
2021/06/05 02:47:17;;;;;;;12.23;11.07;;;;;;;19.10;75.49;101072.66;5094110;28;20577;-77
2021/06/05 02:49:44;;;;;;;11.20;10.23;;;;;;;19.09;75.84;101077.19;5097933;28;20193;-79
2021/06/05 02:52:28;;;;;;;11.67;9.93;;;;;;;19.10;75.73;101076.22;5109486;28;20264;-78
2021/06/05 02:54:57;;;;;;;10.53;9.53;;;;;;;19.09;75.86;101071.81;5099209;28;20201;-79
2021/06/05 02:57:23;;;;;;;10.70;9.73;;;;;;;19.08;75.94;101081.75;5092939;28;20206;-78
2021/06/05 02:59:49;;;;;;;11.63;10.50;;;;;;;19.11;76.26;101079.75;5107806;28;20225;-78
2021/06/05 03:02:15;;;;;;;10.40;9.60;;;;;;;19.14;76.36;101077.63;5102966;28;20221;-78
2021/06/05 03:04:41;;;;;;;9.83;8.93;;;;;;;19.15;76.26;101073.94;5101885;28;20207;-78
2021/06/05 03:07:07;;;;;;;10.43;9.57;;;;;;;19.16;76.22;101072.09;5109117;28;20582;-79
2021/06/05 03:09:34;;;;;;;11.03;10.03;;;;;;;19.15;76.03;101073.09;5095166;28;20208;-79
2021/06/05 03:12:01;;;;;;;9.83;8.37;;;;;;;19.08;75.80;101072.78;5111498;28;20295;-79
2021/06/05 03:14:27;;;;;;;7.80;7.07;;;;;;;18.97;75.52;101079.19;5109647;28;20208;-79
2021/06/05 03:16:53;;;;;;;9.73;7.60;;;;;;;18.87;75.45;101081.00;5096439;28;20202;-78
2021/06/05 03:19:19;;;;;;;8.73;7.90;;;;;;;18.81;75.50;101075.34;5092573;28;20280;-78
2021/06/05 03:21:46;;;;;;;7.77;7.07;;;;;;;18.79;75.97;101078.16;5095705;28;20201;-78
2021/06/05 03:24:12;;;;;;;9.23;8.33;;;;;;;18.79;76.22;101070.06;5094134;28;20218;-78
2021/06/05 03:26:38;;;;;;;9.03;8.23;;;;;;;18.82;76.44;101067.06;5107164;28;20260;-78
2021/06/05 03:29:05;;;;;;;9.90;9.00;;;;;;;18.84;76.31;101067.78;5114022;28;20200;-79
2021/06/05 03:31:31;;;;;;;11.80;7.97;;;;;;;18.83;76.09;101073.31;5093363;28;20348;-78
2021/06/05 03:33:57;;;;;;;9.53;8.63;;;;;;;18.79;76.03;101063.81;5095615;28;20272;-78
2021/06/05 03:36:26;;;;;;;9.00;8.10;;;;;;;18.73;76.16;101067.94;5103617;28;20205;-78
2021/06/05 03:38:53;;;;;;;8.70;7.90;;;;;;;18.70;76.41;101065.50;5107033;28;20225;-78
2021/06/05 03:41:19;;;;;;;9.20;8.17;;;;;;;18.69;76.76;101064.66;5102211;28;20207;-77
2021/06/05 03:43:45;;;;;;;8.87;8.10;;;;;;;18.70;76.96;101062.81;5106701;28;20232;-77
2021/06/05 03:46:13;;;;;;;9.40;8.70;;;;;;;18.73;76.98;101063.38;5099589;28;20209;-78
2021/06/05 03:48:39;;;;;;;9.93;9.13;;;;;;;18.78;77.30;101062.13;5098998;28;20202;-78
2021/06/05 03:51:07;;;;;;;10.60;9.70;;;;;;;18.80;77.31;101061.00;5098023;28;20661;-78
2021/06/05 03:53:33;;;;;;;11.83;10.83;;;;;;;18.85;77.61;101063.25;5111773;28;20338;-79
2021/06/05 03:56:00;;;;;;;11.67;10.70;;;;;;;18.89;77.70;101068.22;5096679;28;20208;-78
2021/06/05 03:58:29;;;;;;;12.30;11.13;;;;;;;18.93;77.81;101058.00;5091879;28;20230;-79
2021/06/05 04:00:56;;;;;;;10.93;9.90;;;;;;;18.96;77.72;101065.84;5103633;28;20223;-78
2021/06/05 04:03:23;;;;;;;12.43;10.80;;;;;;;18.98;77.86;101062.00;5111749;28;20231;-78
2021/06/05 04:05:49;;;;;;;12.27;11.17;;;;;;;19.01;77.81;101066.25;5094539;28;20311;-79
2021/06/05 04:08:16;;;;;;;11.93;10.83;;;;;;;19.04;77.86;101064.13;5107084;28;20203;-78
2021/06/05 04:10:42;;;;;;;12.90;11.77;;;;;;;19.08;77.88;101075.50;5100964;28;20204;-78
2021/06/05 04:13:08;;;;;;;13.60;12.40;;;;;;;19.12;78.06;101059.88;5102507;28;20246;-78
2021/06/05 04:15:34;;;;;;;12.60;11.57;;;;;;;19.14;77.89;101066.84;5102171;28;20213;-79
2021/06/05 04:18:03;;;;;;;13.47;12.43;;;;;;;19.16;77.79;101067.56;5095742;28;20206;-78
2021/06/05 04:20:32;;;;;;;12.97;11.67;;;;;;;19.16;77.85;101070.25;5099076;28;20305;-79
2021/06/05 04:22:58;;;;;;;12.93;11.73;;;;;;;19.19;77.97;101063.69;5109622;28;20227;-79
2021/06/05 04:25:25;;;;;;;13.13;10.67;;;;;;;19.21;77.58;101064.41;5105102;28;20669;-78
2021/06/05 04:27:51;;;;;;;12.73;11.53;;;;;;;19.25;77.85;101061.28;5096811;28;20260;-77
2021/06/05 04:30:21;;;;;;;11.07;10.00;;;;;;;19.26;77.82;101071.09;5094216;28;20204;-76
2021/06/05 04:32:47;;;;;;;11.37;10.47;;;;;;;19.27;77.89;101071.94;5104343;28;20231;-78
2021/06/05 04:35:13;;;;;;;10.57;9.60;;;;;;;19.28;77.65;101071.81;5103625;28;20201;-77
2021/06/05 04:37:41;;;;;;;9.30;8.40;;;;;;;19.28;77.38;101073.66;5099850;28;20297;-78
2021/06/05 04:40:09;;;;;;;10.60;9.57;;;;;;;19.28;77.48;101069.09;5100289;28;20228;-77
2021/06/05 04:42:35;;;;;;;10.63;9.73;;;;;;;19.28;77.71;101058.28;5102599;28;20222;-80
2021/06/05 04:45:01;;;;;;;10.63;9.73;;;;;;;19.31;77.84;101062.56;5096452;28;20243;-80
2021/06/05 04:47:27;;;;;;;11.60;10.50;;;;;;;19.33;77.86;101069.53;5098813;28;20226;-80
2021/06/05 04:49:53;;;;;;;10.87;9.87;;;;;;;19.35;77.94;101058.56;5098496;28;20667;-79
2021/06/05 04:52:19;;;;;;;10.90;10.00;;;;;;;19.37;77.89;101057.41;5109366;28;20601;-79
2021/06/05 04:54:46;;;;;;;10.80;9.80;;;;;;;19.39;77.70;101052.72;5106957;28;20211;-79
2021/06/05 04:57:12;;;;;;;13.10;10.90;;;;;;;19.41;77.64;101064.25;5097838;28;20277;-78
2021/06/05 04:59:38;;;;;;;10.50;9.70;;;;;;;19.43;77.37;101062.25;5105343;28;20227;-79
2021/06/05 05:02:04;;;;;;;10.97;10.07;;;;;;;19.46;77.34;101061.13;5097171;28;20230;-79
2021/06/05 05:04:30;;;;;;;13.30;12.10;;;;;;;19.50;77.51;101065.28;5108722;28;20213;-79
2021/06/05 05:06:56;;;;;;;12.17;10.97;;;;;;;19.54;77.43;101072.06;5103287;28;20196;-79
2021/06/05 05:09:23;;;;;;;12.17;11.07;;;;;;;19.57;77.36;101074.50;5098846;28;20677;-77
2021/06/05 05:11:50;;;;;;;13.07;11.97;;;;;;;19.60;77.53;101070.66;5100912;28;20208;-78
2021/06/05 05:14:17;;;;;;;12.37;11.37;;;;;;;19.60;77.44;101068.81;5105387;28;20201;-79
2021/06/05 05:16:43;;;;;;;12.70;11.60;;;;;;;19.63;77.42;101068.50;5104691;27;20210;-79
2021/06/05 05:19:09;;;;;;;16.70;12.20;;;;;;;19.65;77.31;101068.38;5099179;28;20230;-79
2021/06/05 05:21:36;;;;;;;12.97;11.77;;;;;;;19.68;77.47;101068.09;5110686;27;20605;-79
2021/06/05 05:24:08;;;;;;;12.70;11.70;;;;;;;19.70;77.35;101072.34;5106656;27;20206;-79
2021/06/05 05:26:34;;;;;;;12.43;11.23;;;;;;;19.72;77.39;101064.91;5104304;27;20602;-79
2021/06/05 05:29:01;;;;;;;12.77;11.60;;;;;;;19.75;77.48;101066.47;5103928;27;20199;-78
2021/06/05 05:31:29;;;;;;;12.73;11.73;;;;;;;19.77;77.28;101065.34;5101668;27;20251;-79
2021/06/05 05:33:56;;;;;;;13.10;12.00;;;;;;;19.80;77.13;101069.59;5101982;27;20217;-78
2021/06/05 05:36:25;;;;;;;13.23;12.10;;;;;;;19.82;77.02;101066.75;5106518;27;20610;-77
2021/06/05 05:38:52;;;;;;;14.13;12.80;;;;;;;19.84;77.02;101060.22;5104739;27;20228;-79
2021/06/05 05:41:19;;;;;;;13.30;12.20;;;;;;;19.87;77.29;101065.34;5098679;27;20597;-78
2021/06/05 05:43:45;;;;;;;13.03;11.87;;;;;;;19.92;77.16;101068.44;5108859;27;20289;-77
2021/06/05 05:46:13;;;;;;;14.47;13.13;;;;;;;19.97;77.17;101070.69;5105618;27;20202;-78
2021/06/05 05:48:40;;;;;;;14.50;13.20;;;;;;;20.02;77.32;101065.72;5106361;27;20197;-78
2021/06/05 05:51:10;;;;;;;12.97;11.90;;;;;;;20.08;77.02;101078.63;5097510;28;20233;-79
2021/06/05 05:53:37;;;;;;;12.47;11.43;;;;;;;20.13;76.71;101081.72;5104764;28;20231;-79
2021/06/05 05:56:04;;;;;;;13.70;12.50;;;;;;;20.16;76.79;101076.03;5108702;28;20210;-80
2021/06/05 05:58:30;;;;;;;13.73;12.53;;;;;;;20.21;76.79;101075.59;5103179;28;20206;-78
2021/06/05 06:00:57;;;;;;;12.87;11.80;;;;;;;20.25;76.63;101079.69;5101101;28;20213;-78
2021/06/05 06:03:25;;;;;;;13.37;12.20;;;;;;;20.30;76.40;101082.81;5108922;28;20226;-78
2021/06/05 06:05:51;;;;;;;13.80;12.57;;;;;;;20.34;76.34;101079.66;5098254;28;20548;-78
2021/06/05 06:08:20;;;;;;;13.23;11.97;;;;;;;20.38;76.29;101080.25;5099439;28;20796;-77
2021/06/05 06:10:46;;;;;;;14.50;13.20;;;;;;;20.43;76.31;101081.47;5101412;28;20206;-78
2021/06/05 06:13:13;;;;;;;14.80;13.53;;;;;;;20.48;76.44;101081.03;5100343;28;20223;-78
2021/06/05 06:15:40;;;;;;;15.10;13.90;;;;;;;20.55;76.23;101084.00;5101991;28;20238;-78
2021/06/05 06:18:09;;;;;;;14.73;13.53;;;;;;;20.60;76.31;101082.53;5099145;28;20210;-78
2021/06/05 06:20:40;;;;;;;15.43;14.03;;;;;;;20.68;76.18;101076.38;5098823;28;20283;-78
2021/06/05 06:23:07;;;;;;;16.37;15.03;;;;;;;20.74;76.00;101083.88;5102091;28;20369;-79
2021/06/05 06:25:39;;;;;;;16.20;14.87;;;;;;;20.80;75.82;101086.81;5106617;28;20624;-79
2021/06/05 06:28:06;;;;;;;16.00;14.53;;;;;;;20.85;75.77;101071.97;5095425;28;20290;-78
2021/06/05 06:30:35;;;;;;;15.60;14.10;;;;;;;20.91;75.71;101076.78;5102406;28;20226;-79
2021/06/05 06:33:02;;;;;;;14.83;13.57;;;;;;;20.97;75.68;101070.75;5093129;28;20735;-78
2021/06/05 06:35:30;;;;;;;15.17;13.77;;;;;;;21.02;75.77;101069.28;5093895;28;20643;-79
2021/06/05 06:37:57;;;;;;;13.90;12.60;;;;;;;21.10;75.49;101079.34;5103076;28;20225;-78
2021/06/05 06:40:27;;;;;;;13.47;12.37;;;;;;;21.15;75.15;101074.31;5110407;28;20712;-79
2021/06/05 06:42:53;;;;;;;12.37;11.20;;;;;;;21.22;75.05;101078.13;5098309;28;20284;-79
2021/06/05 06:45:19;;;;;;;12.77;11.60;;;;;;;21.31;74.96;101088.06;5106138;28;20211;-78
2021/06/05 06:47:46;;;;;;;12.93;11.80;;;;;;;21.42;74.62;101087.81;5097494;28;20248;-77
2021/06/05 06:50:16;;;;;;;12.63;11.63;;;;;;;21.55;74.47;101086.53;5095906;28;20202;-78
2021/06/05 06:52:42;;;;;;;13.33;12.13;;;;;;;21.67;74.07;101085.28;5105126;28;20262;-78
2021/06/05 06:55:11;;;;;;;13.10;11.80;;;;;;;21.77;73.69;101086.03;5101643;27;20204;-78
2021/06/05 06:57:38;;;;;;;13.97;12.67;;;;;;;21.87;73.19;101075.91;5099424;28;20677;-79
2021/06/05 07:00:10;;;;;;;14.40;13.10;;;;;;;22.00;73.07;101086.38;5093195;28;20227;-78
2021/06/05 07:02:36;;;;;;;11.70;10.77;;;;;;;22.08;72.40;101079.13;5093657;28;20696;-78
2021/06/05 07:05:03;;;;;;;11.70;9.90;;;;;;;22.24;72.10;101077.50;5096161;28;20665;-79
2021/06/05 07:07:29;;;;;;;10.90;9.97;;;;;;;22.39;71.32;101078.63;5112558;28;20257;-78
2021/06/05 07:09:55;;;;;;;10.60;9.70;;;;;;;22.60;71.28;101084.44;5099791;28;20661;-79
2021/06/05 07:12:23;;;;;;;10.57;9.70;;;;;;;22.86;70.33;101081.69;5096524;28;20394;-78
2021/06/05 07:14:49;;;;;;;10.38;9.43;;;;;;;23.05;69.64;101085.97;5106104;28;20211;-78
2021/06/05 07:17:15;;;;;;;9.55;8.65;;;;;;;23.15;68.23;101078.50;5104615;28;20212;-79
2021/06/05 07:19:41;;;;;;;9.45;8.55;;;;;;;23.22;67.68;101075.97;5102281;28;20298;-79
2021/06/05 07:22:07;;;;;;;8.75;7.95;;;;;;;23.25;66.83;101078.34;5105280;28;20269;-78
2021/06/05 07:24:34;;;;;;;7.45;6.85;;;;;;;23.30;66.37;101075.94;5101235;28;20256;-78
2021/06/05 07:27:00;;;;;;;7.25;6.55;;;;;;;23.32;66.13;101080.22;5105236;28;20681;-78
2021/06/05 07:29:28;;;;;;;7.10;6.50;;;;;;;23.35;65.53;101073.59;5094242;28;20561;-77
2021/06/05 07:31:54;;;;;;;7.15;6.53;;;;;;;23.39;65.49;101069.50;5097574;28;20320;-79
2021/06/05 07:34:23;;;;;;;7.95;6.65;;;;;;;23.46;65.20;101067.81;5107460;28;20328;-78
2021/06/05 07:36:52;;;;;;;7.38;6.55;;;;;;;23.51;65.19;101069.03;5100706;28;20206;-78
2021/06/05 07:39:22;;;;;;;7.72;6.35;;;;;;;23.57;64.96;101069.38;5114315;28;20227;-78
2021/06/05 07:41:49;;;;;;;7.20;6.50;;;;;;;23.61;65.08;101079.75;5092989;28;20337;-78
2021/06/05 07:44:16;;;;;;;7.03;6.43;;;;;;;23.64;64.72;101073.97;5094373;28;20226;-78
2021/06/05 07:46:45;;;;;;;6.93;6.32;;;;;;;23.70;65.21;101078.69;5095887;28;20222;-78
2021/06/05 07:49:12;;;;;;;6.75;6.20;;;;;;;23.75;64.65;101081.75;5101345;28;20413;-78
2021/06/05 07:51:39;;;;;;;6.82;6.32;;;;;;;23.79;64.30;101077.69;5103208;28;20199;-78
2021/06/05 07:54:05;;;;;;;7.03;6.43;;;;;;;23.83;63.90;101079.00;5101252;28;20237;-79
2021/06/05 07:56:32;;;;;;;6.95;6.35;;;;;;;23.86;63.13;101077.81;5106306;28;20297;-79
2021/06/05 07:58:58;;;;;;;6.65;6.05;;;;;;;23.87;63.42;101072.22;5110371;28;20861;-79
2021/06/05 08:01:25;;;;;;;5.68;5.20;;;;;;;23.88;62.94;101078.50;5095319;28;20630;-78
2021/06/05 08:03:53;;;;;;;6.72;5.13;;;;;;;23.92;63.45;101076.28;5092884;28;20250;-78
2021/06/05 08:06:20;;;;;;;6.40;5.90;;;;;;;23.99;63.59;101075.44;5093299;28;20250;-79
2021/06/05 08:08:46;;;;;;;6.53;5.80;;;;;;;24.05;63.38;101074.72;5093118;28;20220;-77
2021/06/05 08:11:12;;;;;;;6.53;5.80;;;;;;;24.09;63.35;101073.34;5093187;28;20231;-77
2021/06/05 08:13:38;;;;;;;5.35;4.93;;;;;;;24.13;63.21;101085.59;5104830;28;20295;-78
2021/06/05 08:16:06;;;;;;;7.65;6.13;;;;;;;24.15;63.20;101083.53;5100986;28;20198;-77
2021/06/05 08:18:32;;;;;;;7.05;6.45;;;;;;;24.20;62.79;101083.00;5096376;28;20199;-77
2021/06/05 08:21:03;;;;;;;7.25;6.65;;;;;;;24.22;62.44;101087.25;5107871;28;20240;-77
2021/06/05 08:23:33;;;;;;;7.07;6.57;;;;;;;24.26;62.47;101081.50;5099276;28;20684;-77
2021/06/05 08:26:00;;;;;;;6.70;6.13;;;;;;;24.30;62.00;101080.13;5111132;28;20210;-77
2021/06/05 08:28:27;;;;;;;7.38;6.78;;;;;;;24.34;61.90;101076.03;5101606;28;20198;-77
2021/06/05 08:30:56;;;;;;;6.32;5.82;;;;;;;24.39;61.63;101084.50;5103539;28;20235;-77
2021/06/05 08:33:23;;;;;;;7.22;6.63;;;;;;;24.44;61.40;101080.22;5108059;27;20227;-77
2021/06/05 08:35:50;;;;;;;6.95;6.45;;;;;;;24.46;61.14;101077.34;5106215;28;20211;-78
2021/06/05 08:38:20;;;;;;;7.50;6.90;;;;;;;24.47;61.62;101082.59;5105190;28;20638;-77
2021/06/05 08:40:51;;;;;;;7.80;7.13;;;;;;;24.51;61.24;101078.50;5104505;28;20203;-77
2021/06/05 08:43:26;;;;;;;8.40;7.60;;;;;;;24.54;61.64;101074.59;5104077;28;20307;-78
2021/06/05 08:45:52;;;;;;;8.50;7.80;;;;;;;24.56;61.59;101077.94;5099022;28;20197;-77
2021/06/05 08:48:22;;;;;;;11.48;7.90;;;;;;;24.58;61.70;101076.75;5102189;28;20237;-77
2021/06/05 08:50:48;;;;;;;8.60;7.85;;;;;;;24.63;61.82;101087.13;5096075;28;20198;-78
2021/06/05 08:53:19;;;;;;;8.65;7.80;;;;;;;24.75;62.38;101085.69;5098491;28;20704;-77
2021/06/05 08:55:51;;;;;;;9.60;8.70;;;;;;;24.94;62.12;101078.97;5105958;28;20200;-77
2021/06/05 08:58:28;;;;;;;10.07;9.18;;;;;;;25.13;61.42;101083.09;5096430;28;20192;-77
2021/06/05 09:00:58;;;;;;;9.50;8.70;;;;;;;25.35;61.18;101079.53;5098102;28;20212;-78
2021/06/05 09:03:27;;;;;;;9.60;8.77;;;;;;;25.55;60.50;101088.91;5101055;28;20266;-78
2021/06/05 09:05:57;;;;;;;10.43;9.43;;;;;;;25.74;60.01;101087.56;5094574;28;20649;-77
2021/06/05 09:08:25;;;;;;;10.57;9.68;;;;;;;25.89;58.94;101090.31;5106118;28;20206;-77
2021/06/05 09:10:55;;;;;;;10.63;9.73;;;;;;;25.96;58.46;101088.56;5114707;28;20207;-77
2021/06/05 09:13:21;;;;;;;10.43;9.52;;;;;;;26.03;58.43;101086.75;5099397;28;20220;-76
2021/06/05 09:15:47;;;;;;;11.70;10.68;;;;;;;26.12;58.42;101092.97;5101527;28;20706;-76
2021/06/05 09:18:14;;;;;;;13.25;12.13;;;;;;;26.16;57.97;101080.63;5110396;28;20203;-77
2021/06/05 09:20:42;;;;;;;11.98;11.02;;;;;;;26.21;57.70;101084.50;5103844;28;20272;-77
2021/06/05 09:23:30;;;;;;;11.90;10.80;;;;;;;26.29;57.91;101086.31;5102923;28;20588;-78
2021/06/05 09:25:58;;;;;;;11.10;10.05;;;;;;;26.36;57.11;101078.22;5108411;28;20207;-77
2021/06/05 09:28:29;;;;;;;11.05;10.05;;;;;;;26.44;57.08;101086.31;5102373;28;20282;-76
2021/06/05 09:31:14;;;;;;;12.32;11.23;;;;;;;26.50;56.96;101083.69;5094515;28;20211;-77
2021/06/05 09:33:41;;;;;;;11.40;10.40;;;;;;;26.59;56.78;101079.78;5096685;28;20320;-77
2021/06/05 09:36:18;;;;;;;10.52;9.63;;;;;;;26.70;56.89;101083.91;5099675;27;20196;-77
2021/06/05 09:38:52;;;;;;;10.93;10.07;;;;;;;26.76;56.46;101077.69;5096365;27;20225;-77
2021/06/05 09:41:23;;;;;;;9.52;8.73;;;;;;;26.78;56.59;101075.59;5096624;28;20584;-77
2021/06/05 09:43:51;;;;;;;10.52;9.63;;;;;;;26.83;56.96;101086.81;5100185;28;20590;-77
2021/06/05 09:46:28;;;;;;;11.02;10.13;;;;;;;26.91;56.35;101075.75;5102593;28;20636;-77
2021/06/05 09:49:14;;;;;;;12.68;11.68;;;;;;;26.93;55.20;101081.03;5108500;28;20195;-77
2021/06/05 09:51:42;;;;;;;11.48;10.45;;;;;;;26.93;55.65;101078.28;5100150;28;20796;-77
2021/06/05 09:54:13;;;;;;;11.23;10.23;;;;;;;26.89;55.86;101086.03;5100213;28;20200;-77
2021/06/05 09:56:41;;;;;;;10.77;9.88;;;;;;;26.86;55.95;101083.69;5104423;28;20241;-77
2021/06/05 09:59:16;;;;;;;11.32;10.38;;;;;;;26.85;56.17;101075.69;5110543;28;20590;-77
2021/06/05 10:01:55;;;;;;;10.82;9.93;;;;;;;26.87;56.04;101077.16;5104189;28;21572;-77
2021/06/05 10:04:22;;;;;;;10.77;9.88;;;;;;;26.89;56.16;101079.72;5107873;28;20226;-77
2021/06/05 10:06:52;;;;;;;11.55;10.60;;;;;;;26.83;55.75;101072.31;5093798;28;20202;-77
2021/06/05 10:09:31;;;;;;;12.20;11.25;;;;;;;26.78;55.96;101074.75;5115205;28;20221;-77
2021/06/05 10:12:01;;;;;;;12.85;11.65;;;;;;;26.75;56.43;101064.19;5094145;28;20234;-77
2021/06/05 10:14:40;;;;;;;12.77;11.57;;;;;;;26.75;56.74;101062.31;5098017;27;20200;-76
2021/06/05 10:17:14;;;;;;;13.57;12.38;;;;;;;26.76;56.50;101055.81;5100830;27;20192;-77
2021/06/05 10:19:43;;;;;;;13.55;12.25;;;;;;;26.77;56.65;101064.88;5100271;28;20216;-77
2021/06/05 10:22:12;;;;;;;14.88;13.73;;;;;;;26.74;56.20;101065.25;5100975;28;20231;-77
2021/06/05 10:24:44;;;;;;;14.00;12.90;;;;;;;26.70;56.24;101064.78;5105141;28;20207;-77
2021/06/05 10:27:13;;;;;;;14.68;13.48;;;;;;;26.63;56.13;101066.59;5104354;28;20200;-77
2021/06/05 10:29:44;;;;;;;16.02;14.55;;;;;;;26.61;56.21;101066.78;5102652;28;20195;-77
2021/06/05 10:32:13;;;;;;;16.05;14.18;;;;;;;26.56;56.49;101065.66;5102008;28;20227;-77
2021/06/05 10:34:42;;;;;;;14.75;13.63;;;;;;;26.50;56.24;101058.25;5096170;28;20631;-76
2021/06/05 10:37:14;;;;;;;14.98;13.77;;;;;;;26.44;56.64;101059.00;5106927;28;20207;-77
2021/06/05 10:39:44;;;;;;;15.80;14.45;;;;;;;26.35;56.90;101055.50;5110765;28;20216;-77
2021/06/05 10:42:21;;;;;;;15.70;14.40;;;;;;;26.26;57.29;101057.47;5098704;27;20742;-77
2021/06/05 10:44:47;;;;;;;15.05;13.80;;;;;;;26.21;57.76;101064.53;5104388;28;20202;-78
2021/06/05 10:47:20;;;;;;;14.27;12.98;;;;;;;26.17;57.62;101072.25;5097454;28;20299;-77
2021/06/05 10:49:54;;;;;;;14.32;13.18;;;;;;;26.17;57.73;101072.25;5102333;28;20292;-77
2021/06/05 10:52:27;;;;;;;16.10;14.77;;;;;;;26.13;57.41;101070.97;5105478;28;20276;-77
2021/06/05 10:54:59;;;;;;;15.57;14.27;;;;;;;26.09;57.75;101077.81;5096552;28;20204;-78
2021/06/05 10:57:36;;;;;;;17.02;15.45;;;;;;;26.05;57.85;101072.91;5101085;28;20229;-77
2021/06/05 11:00:22;;;;;;;15.55;14.35;;;;;;;25.98;57.94;101067.34;5097466;28;20226;-77
2021/06/05 11:02:50;;;;;;;17.45;15.95;;;;;;;25.92;58.53;101073.56;5105706;28;20216;-77
2021/06/05 11:05:42;;;;;;;17.15;15.75;;;;;;;25.88;58.85;101074.97;5099566;28;20210;-77
2021/06/05 11:08:41;;;;;;;18.20;16.70;;;;;;;25.83;59.15;101085.59;5099558;28;20207;-77
2021/06/05 11:11:32;;;;;;;18.13;16.83;;;;;;;25.77;59.33;101079.03;5099648;28;20227;-77
2021/06/05 11:13:59;;;;;;;19.63;18.00;;;;;;;25.72;60.07;101081.44;5098612;28;20224;-77
2021/06/05 11:16:58;;;;;;;20.42;18.75;;;;;;;25.69;60.40;101080.97;5094004;28;20211;-78
2021/06/05 11:19:32;;;;;;;20.58;18.77;;;;;;;25.64;61.57;101081.50;5092569;28;20231;-78
2021/06/05 11:22:00;;;;;;;20.48;18.65;;;;;;;25.59;61.17;101090.25;5096597;28;20227;-77
2021/06/05 11:24:26;;;;;;;21.90;20.08;;;;;;;25.53;61.68;101101.03;5100163;28;20206;-77